createdAt,value
2023-02-20T00:00:41.991Z,2.23
2023-02-20T00:03:46.546Z,3.95
2023-02-20T00:06:49.510Z,3.13
2023-02-20T00:09:52.290Z,3.28
2023-02-20T00:12:55.351Z,4.68
2023-02-20T00:15:58.152Z,5.57
2023-02-20T00:19:00.991Z,8.77
2023-02-20T00:22:03.841Z,9.13
2023-02-20T00:25:07.143Z,5.55
2023-02-20T00:28:09.986Z,2.77
2023-02-20T00:31:16.329Z,3.10
2023-02-20T00:34:19.296Z,3.45
2023-02-20T00:37:22.360Z,4.75
2023-02-20T00:40:25.943Z,4.93
2023-02-20T00:43:29.011Z,4.28
2023-02-20T00:46:32.352Z,8.07
2023-02-20T00:49:35.227Z,4.90
2023-02-20T00:52:50.054Z,7.30
2023-02-20T00:55:53.683Z,5.22
2023-02-20T00:58:56.555Z,4.87
2023-02-20T01:01:59.553Z,4.63
2023-02-20T01:05:02.566Z,6.60
2023-02-20T01:08:05.693Z,7.65
2023-02-20T01:11:08.710Z,8.18
2023-02-20T01:14:13.356Z,4.93
2023-02-20T01:17:16.202Z,3.30
2023-02-20T01:20:19.084Z,3.30
2023-02-20T01:23:22.390Z,4.00
2023-02-20T01:26:25.243Z,3.78
2023-02-20T01:29:28.065Z,7.63
2023-02-20T01:32:30.967Z,2.70
2023-02-20T01:35:33.946Z,2.10
2023-02-20T01:38:37.352Z,2.50
2023-02-20T01:41:41.517Z,2.92
2023-02-20T01:44:44.387Z,2.53
2023-02-20T01:47:47.637Z,3.03
2023-02-20T01:50:55.214Z,3.88
2023-02-20T01:53:59.911Z,3.67
2023-02-20T01:57:05.584Z,6.47
2023-02-20T02:00:11.569Z,4.90
2023-02-20T02:03:24.610Z,4.17
2023-02-20T02:06:29.484Z,4.20
2023-02-20T02:09:49.517Z,4.93
2023-02-20T02:12:54.758Z,1.90
2023-02-20T02:16:34.938Z,3.57
2023-02-20T02:20:04.788Z,2.10
2023-02-20T02:23:42.804Z,1.75
2023-02-20T02:27:36.482Z,2.90
2023-02-20T02:31:12.097Z,2.20
2023-02-20T02:34:40.040Z,2.30
2023-02-20T02:38:03.210Z,2.73
2023-02-20T02:41:14.006Z,2.13
2023-02-20T02:44:44.329Z,2.10
2023-02-20T02:48:33.049Z,1.58
2023-02-20T02:51:39.804Z,3.20
2023-02-20T02:54:42.538Z,2.27
2023-02-20T02:57:46.011Z,3.22
2023-02-20T03:00:58.517Z,5.28
2023-02-20T03:04:06.751Z,2.92
2023-02-20T03:07:16.252Z,4.40
2023-02-20T03:10:32.048Z,4.67
2023-02-20T03:14:04.885Z,6.38
2023-02-20T03:17:15.318Z,3.40
2023-02-20T03:20:21.271Z,3.22
2023-02-20T03:23:37.966Z,3.47
2023-02-20T03:26:44.215Z,4.40
2023-02-20T03:29:48.865Z,3.65
2023-02-20T03:33:17.335Z,3.58
2023-02-20T03:36:48.973Z,3.05
2023-02-20T03:40:13.749Z,2.83
2023-02-20T03:43:26.562Z,2.70
2023-02-20T03:46:35.779Z,5.65
2023-02-20T03:50:01.708Z,3.08
2023-02-20T03:53:05.865Z,3.55
2023-02-20T03:56:13.387Z,1.63
2023-02-20T03:59:25.242Z,2.77
2023-02-20T04:02:31.024Z,2.08
2023-02-20T04:05:39.092Z,3.40
2023-02-20T04:09:07.703Z,3.30
2023-02-20T04:12:27.176Z,2.40
2023-02-20T04:15:31.553Z,1.87
2023-02-20T04:18:36.034Z,2.80
2023-02-20T04:21:55.886Z,1.20
2023-02-20T04:25:20.180Z,2.67
2023-02-20T04:28:24.805Z,1.97
2023-02-20T04:31:33.278Z,1.80
2023-02-20T04:34:37.390Z,1.35
2023-02-20T04:37:42.884Z,1.15
2023-02-20T04:40:46.225Z,3.63
2023-02-20T04:43:49.537Z,4.20
2023-02-20T04:46:52.838Z,6.50
2023-02-20T04:49:56.930Z,5.88
2023-02-20T04:53:01.860Z,10.48
2023-02-20T04:56:05.145Z,23.90
2023-02-20T04:59:10.453Z,21.27
2023-02-20T05:02:13.577Z,19.90
2023-02-20T05:05:24.635Z,18.15
2023-02-20T05:08:27.386Z,13.98
2023-02-20T05:11:30.155Z,9.18
2023-02-20T05:14:33.001Z,8.47
2023-02-20T05:17:36.257Z,4.97
2023-02-20T05:20:57.963Z,5.45
2023-02-20T05:24:00.787Z,4.55
2023-02-20T05:27:03.764Z,3.70
2023-02-20T05:30:07.893Z,3.23
2023-02-20T05:33:12.842Z,3.63
2023-02-20T05:36:17.456Z,3.38
2023-02-20T05:39:20.876Z,5.85
2023-02-20T05:42:23.635Z,4.97
2023-02-20T05:45:26.487Z,4.40
2023-02-20T05:48:29.434Z,3.80
2023-02-20T05:51:34.225Z,3.38
2023-02-20T05:54:38.575Z,2.58
2023-02-20T05:57:41.338Z,4.72
2023-02-20T06:00:44.193Z,2.97
2023-02-20T06:03:47.160Z,3.97
2023-02-20T06:06:49.993Z,2.92
2023-02-20T06:09:52.903Z,10.77
2023-02-20T06:12:55.836Z,14.93
2023-02-20T06:15:58.820Z,11.60
2023-02-20T06:19:02.050Z,13.97
2023-02-20T06:22:05.688Z,12.05
2023-02-20T06:25:08.774Z,9.63
2023-02-20T06:28:11.622Z,9.98
2023-02-20T06:31:14.793Z,17.67
2023-02-20T06:34:18.347Z,7.63
2023-02-20T06:37:22.041Z,7.45
2023-02-20T06:40:25.222Z,8.10
2023-02-20T06:43:28.229Z,7.13
2023-02-20T06:46:31.717Z,6.53
2023-02-20T06:49:38.613Z,5.37
2023-02-20T06:52:41.548Z,4.70
2023-02-20T06:55:44.429Z,3.88
2023-02-20T06:58:48.786Z,3.05
2023-02-20T07:01:52.035Z,5.77
2023-02-20T07:04:55.091Z,3.07
2023-02-20T07:07:58.319Z,4.40
2023-02-20T07:11:01.365Z,2.80
2023-02-20T07:14:04.404Z,6.00
2023-02-20T07:17:07.225Z,5.90
2023-02-20T07:20:11.771Z,11.90
2023-02-20T07:23:15.346Z,7.63
2023-02-20T07:26:24.147Z,3.33
2023-02-20T07:29:27.198Z,4.38
2023-02-20T07:32:33.104Z,2.92
2023-02-20T07:35:38.492Z,3.83
2023-02-20T07:38:43.856Z,5.25
2023-02-20T07:41:46.940Z,2.38
2023-02-20T07:45:09.662Z,3.22
2023-02-20T07:48:12.809Z,6.72
2023-02-20T07:51:16.527Z,4.80
2023-02-20T07:54:19.403Z,3.13
2023-02-20T07:57:22.594Z,3.88
2023-02-20T08:00:28.083Z,5.07
2023-02-20T08:03:31.048Z,3.80
2023-02-20T08:06:34.081Z,2.00
2023-02-20T08:09:36.973Z,4.40
2023-02-20T08:12:39.987Z,3.13
2023-02-20T08:15:44.875Z,4.80
2023-02-20T08:18:47.855Z,2.97
2023-02-20T08:21:50.679Z,2.07
2023-02-20T08:24:54.904Z,1.55
2023-02-20T08:27:58.358Z,2.58
2023-02-20T08:31:01.482Z,7.40
2023-02-20T08:34:04.302Z,4.80
2023-02-20T08:37:09.943Z,2.27
2023-02-20T08:40:14.233Z,4.10
2023-02-20T08:43:19.261Z,2.50
2023-02-20T08:46:22.268Z,2.35
2023-02-20T08:49:27.299Z,2.92
2023-02-20T08:52:30.412Z,2.10
2023-02-20T08:55:33.292Z,2.80
2023-02-20T08:58:36.813Z,3.45
2023-02-20T09:01:43.636Z,4.60
2023-02-20T09:04:47.752Z,2.30
2023-02-20T09:07:53.716Z,4.90
2023-02-20T09:10:57.349Z,5.78
2023-02-20T09:14:00.784Z,4.60
2023-02-20T09:17:04.029Z,4.03
2023-02-20T09:20:10.009Z,5.78
2023-02-20T09:23:14.066Z,1.77
2023-02-20T09:26:16.925Z,5.10
2023-02-20T09:29:19.981Z,4.53
2023-02-20T09:32:23.953Z,3.67
2023-02-20T09:35:30.464Z,3.15
2023-02-20T09:38:33.479Z,3.43
2023-02-20T09:41:39.521Z,4.43
2023-02-20T09:44:51.978Z,4.60
2023-02-20T09:48:06.545Z,2.85
2023-02-20T09:51:16.256Z,3.97
2023-02-20T09:54:27.620Z,3.63
2023-02-20T09:57:32.978Z,2.38
2023-02-20T10:00:41.785Z,3.00
2023-02-20T10:04:04.914Z,3.10
2023-02-20T10:07:27.992Z,2.47
2023-02-20T10:10:39.340Z,2.40
2023-02-20T10:14:07.126Z,5.65
2023-02-20T10:17:25.652Z,2.83
2023-02-20T10:20:43.055Z,4.55
2023-02-20T10:24:05.530Z,3.65
2023-02-20T10:27:31.762Z,4.50
2023-02-20T10:30:58.328Z,2.40
2023-02-20T10:34:11.334Z,2.30
2023-02-20T10:37:18.175Z,2.67
2023-02-20T10:40:42.298Z,5.80
2023-02-20T10:43:56.293Z,4.03
2023-02-20T10:47:23.346Z,2.72
2023-02-20T10:50:42.053Z,3.38
2023-02-20T10:53:54.199Z,5.60
2023-02-20T10:57:11.715Z,5.65
2023-02-20T11:00:21.522Z,4.03
2023-02-20T11:03:44.039Z,5.00
2023-02-20T11:07:02.561Z,6.40
2023-02-20T11:10:06.945Z,4.93
2023-02-20T11:13:23.037Z,3.65
2023-02-20T11:16:52.055Z,4.63
2023-02-20T11:19:57.295Z,3.72
2023-02-20T11:23:01.787Z,5.90
2023-02-20T11:26:30.701Z,6.45
2023-02-20T11:29:56.477Z,5.72
2023-02-20T11:33:06.244Z,7.37
2023-02-20T11:36:20.483Z,3.83
2023-02-20T11:39:30.776Z,5.40
2023-02-20T11:42:35.941Z,4.70
2023-02-20T11:45:39.315Z,4.82
2023-02-20T11:49:25.532Z,5.43
2023-02-20T11:52:28.910Z,3.85
2023-02-20T11:55:32.672Z,3.25
2023-02-20T11:58:36.258Z,4.65
2023-02-20T12:01:39.865Z,5.93
2023-02-20T12:05:03.374Z,3.60
2023-02-20T12:08:38.061Z,4.28
2023-02-20T12:11:41.040Z,3.88
2023-02-20T12:14:45.606Z,5.07
2023-02-20T12:18:24.861Z,4.82
2023-02-20T12:21:58.546Z,6.00
2023-02-20T12:25:16.742Z,5.38
2023-02-20T12:28:45.556Z,4.00
2023-02-20T12:32:00.948Z,6.18
2023-02-20T12:35:28.713Z,4.00
2023-02-20T12:38:49.182Z,5.67
2023-02-20T12:41:57.918Z,4.13
2023-02-20T12:45:18.324Z,8.90
2023-02-20T12:49:09.117Z,7.38
2023-02-20T12:52:40.112Z,5.88
2023-02-20T12:56:01.077Z,3.10
2023-02-20T12:59:28.492Z,2.78
2023-02-20T13:02:43.761Z,3.67
2023-02-20T13:05:49.289Z,3.80
2023-02-20T13:09:05.339Z,4.75
2023-02-20T13:12:16.217Z,4.60
2023-02-20T13:15:37.781Z,7.43
2023-02-20T13:18:48.903Z,7.38
2023-02-20T13:21:53.669Z,4.13
2023-02-20T13:25:41.727Z,7.25
2023-02-20T13:28:46.042Z,4.03
2023-02-20T13:31:51.157Z,4.40
2023-02-20T13:34:56.864Z,4.78
2023-02-20T13:38:17.974Z,4.13
2023-02-20T13:41:20.865Z,2.53
2023-02-20T13:44:35.958Z,6.07
2023-02-20T13:47:39.747Z,5.88
2023-02-20T13:50:42.615Z,5.25
2023-02-20T13:53:54.948Z,3.53
2023-02-20T13:57:05.066Z,3.33
2023-02-20T14:00:18.933Z,4.73
2023-02-20T14:03:31.121Z,3.95
2023-02-20T14:06:33.971Z,4.97
2023-02-20T14:09:37.853Z,2.53
2023-02-20T14:12:40.794Z,3.08
2023-02-20T14:15:51.230Z,3.70
2023-02-20T14:19:00.964Z,2.47
2023-02-20T14:22:24.155Z,4.13
2023-02-20T14:25:30.626Z,6.00
2023-02-20T14:28:35.206Z,6.35
2023-02-20T14:31:38.587Z,6.30
2023-02-20T14:35:01.806Z,11.98
2023-02-20T14:38:16.033Z,26.75
2023-02-20T14:41:24.680Z,10.15
2023-02-20T14:44:29.809Z,7.88
2023-02-20T14:47:33.314Z,12.30
2023-02-20T14:50:37.051Z,10.15
2023-02-20T14:53:40.472Z,9.57
2023-02-20T14:56:45.532Z,7.22
2023-02-20T14:59:49.210Z,6.15
2023-02-20T15:02:55.915Z,6.50
2023-02-20T15:06:07.156Z,8.20
2023-02-20T15:09:21.889Z,11.82
2023-02-20T15:12:40.873Z,11.13
2023-02-20T15:15:50.717Z,17.20
2023-02-20T15:18:54.698Z,19.53
2023-02-20T15:21:58.836Z,23.45
2023-02-20T15:25:28.249Z,20.40
2023-02-20T15:28:32.017Z,13.32
2023-02-20T15:31:35.427Z,12.23
2023-02-20T15:34:38.884Z,14.50
2023-02-20T15:37:49.192Z,20.90
2023-02-20T15:40:57.289Z,20.65
2023-02-20T15:44:00.215Z,37.97
2023-02-20T15:47:03.085Z,24.70
2023-02-20T15:50:06.492Z,19.07
2023-02-20T15:53:18.883Z,18.88
2023-02-20T15:56:22.078Z,23.48
2023-02-20T15:59:24.988Z,31.35
2023-02-20T16:02:28.019Z,35.58
2023-02-20T16:05:30.799Z,39.17
2023-02-20T16:08:33.528Z,43.90
2023-02-20T16:11:44.159Z,49.75
2023-02-20T16:14:48.514Z,75.38
2023-02-20T16:17:52.055Z,57.72
2023-02-20T16:20:56.213Z,43.87
2023-02-20T16:23:59.223Z,39.63
2023-02-20T16:27:05.744Z,39.03
2023-02-20T16:30:32.163Z,47.15
2023-02-20T16:33:35.929Z,71.53
2023-02-20T16:36:39.145Z,68.80
2023-02-20T16:39:43.212Z,78.47
2023-02-20T16:42:47.082Z,69.35
2023-02-20T16:45:50.311Z,68.15
2023-02-20T16:48:54.393Z,58.27
2023-02-20T16:52:01.578Z,52.67
2023-02-20T16:55:19.678Z,50.63
2023-02-20T16:58:22.528Z,51.70
2023-02-20T17:01:28.764Z,44.47
2023-02-20T17:04:31.841Z,38.63
2023-02-20T17:07:35.425Z,27.83
2023-02-20T17:10:39.454Z,39.35
2023-02-20T17:13:42.274Z,29.80
2023-02-20T17:16:48.882Z,29.33
2023-02-20T17:19:56.173Z,30.48
2023-02-20T17:23:05.096Z,30.57
2023-02-20T17:26:13.611Z,31.20
2023-02-20T17:29:17.224Z,31.50
2023-02-20T17:32:20.602Z,29.98
2023-02-20T17:35:24.113Z,32.40
2023-02-20T17:38:27.920Z,38.03
2023-02-20T17:41:30.845Z,33.85
2023-02-20T17:44:34.008Z,36.50
2023-02-20T17:47:38.063Z,32.92
2023-02-20T17:50:41.907Z,30.03
2023-02-20T17:53:45.293Z,27.80
2023-02-20T17:56:49.043Z,31.13
2023-02-20T17:59:52.171Z,33.35
2023-02-20T18:02:54.978Z,18.83
2023-02-20T18:05:58.547Z,17.17
2023-02-20T18:09:02.771Z,17.30
2023-02-20T18:12:06.684Z,18.48
2023-02-20T18:15:09.985Z,21.08
2023-02-20T18:18:14.701Z,23.23
2023-02-20T18:21:21.157Z,22.37
2023-02-20T18:24:25.708Z,24.40
2023-02-20T18:27:30.241Z,37.50
2023-02-20T18:30:37.415Z,47.78
2023-02-20T18:33:40.918Z,31.92
2023-02-20T18:36:44.546Z,25.40
2023-02-20T18:39:48.102Z,22.63
2023-02-20T18:42:51.847Z,44.22
2023-02-20T18:45:55.499Z,51.28
2023-02-20T18:48:59.393Z,31.95
2023-02-20T18:52:05.058Z,39.93
2023-02-20T18:55:17.641Z,43.67
2023-02-20T18:58:27.821Z,48.15
2023-02-20T19:01:33.935Z,50.28
2023-02-20T19:04:37.413Z,41.95
2023-02-20T19:07:44.648Z,33.73
2023-02-20T19:10:48.284Z,32.17
2023-02-20T19:13:51.574Z,27.15
2023-02-20T19:16:59.032Z,30.52
2023-02-20T19:20:04.800Z,25.85
2023-02-20T19:23:07.849Z,30.40
2023-02-20T19:26:11.436Z,30.63
2023-02-20T19:29:15.070Z,62.45
2023-02-20T19:32:19.435Z,47.53
2023-02-20T19:35:22.379Z,35.25
2023-02-20T19:38:25.596Z,35.10
2023-02-20T19:41:28.890Z,25.43
2023-02-20T19:44:32.129Z,28.02
2023-02-20T19:47:35.380Z,26.85
2023-02-20T19:50:38.682Z,24.50
2023-02-20T19:53:41.651Z,26.17
2023-02-20T19:56:55.069Z,24.60
2023-02-20T19:59:58.185Z,28.90
2023-02-20T20:03:01.321Z,53.45
2023-02-20T20:06:07.478Z,57.20
2023-02-20T20:09:16.678Z,43.50
2023-02-20T20:12:40.233Z,64.20
2023-02-20T20:15:43.387Z,48.70
2023-02-20T20:18:47.972Z,38.97
2023-02-20T20:21:51.557Z,46.97
2023-02-20T20:24:54.405Z,47.83
2023-02-20T20:28:01.278Z,41.67
2023-02-20T20:31:06.710Z,41.88
2023-02-20T20:34:10.189Z,43.95
2023-02-20T20:37:13.223Z,47.30
2023-02-20T20:40:17.136Z,51.77
2023-02-20T20:43:19.863Z,57.23
2023-02-20T20:46:22.963Z,60.28
2023-02-20T20:49:26.298Z,65.50
2023-02-20T20:52:31.141Z,101.10
2023-02-20T20:55:34.790Z,107.43
2023-02-20T20:58:37.650Z,101.87
2023-02-20T21:01:42.557Z,89.20
2023-02-20T21:04:47.171Z,66.90
2023-02-20T21:07:51.071Z,40.53
2023-02-20T21:10:54.786Z,34.23
2023-02-20T21:13:59.037Z,19.70
2023-02-20T21:17:02.195Z,17.27
2023-02-20T21:20:08.194Z,16.90
2023-02-20T21:23:13.220Z,18.17
2023-02-20T21:26:16.212Z,16.70
2023-02-20T21:29:19.344Z,13.87
2023-02-20T21:32:22.482Z,15.50
2023-02-20T21:35:26.312Z,15.95
2023-02-20T21:38:29.206Z,14.57
2023-02-20T21:41:50.648Z,15.63
2023-02-20T21:44:53.476Z,14.83
2023-02-20T21:47:56.409Z,14.55
2023-02-20T21:50:59.774Z,15.95
2023-02-20T21:54:02.714Z,13.18
2023-02-20T21:57:05.766Z,14.20
2023-02-20T22:00:10.322Z,14.93
2023-02-20T22:03:13.575Z,13.45
2023-02-20T22:06:17.282Z,19.90
2023-02-20T22:09:38.936Z,20.80
2023-02-20T22:13:00.791Z,15.93
2023-02-20T22:16:22.734Z,17.20
2023-02-20T22:19:43.921Z,16.13
2023-02-20T22:23:05.634Z,10.95
2023-02-20T22:26:26.674Z,12.90
2023-02-20T22:29:48.610Z,13.10
2023-02-20T22:33:12.870Z,12.50
2023-02-20T22:36:34.200Z,12.18
2023-02-20T22:39:55.780Z,11.88
2023-02-20T22:43:17.174Z,10.18
2023-02-20T22:46:42.212Z,12.27
2023-02-20T22:50:03.775Z,11.43
2023-02-20T22:53:25.419Z,12.40
2023-02-20T22:56:46.640Z,13.50
2023-02-20T23:00:08.500Z,14.05
2023-02-20T23:03:30.386Z,10.63
2023-02-20T23:06:51.755Z,13.73
2023-02-20T23:10:13.034Z,11.88
2023-02-20T23:13:34.688Z,15.35
2023-02-20T23:16:55.786Z,13.40
2023-02-20T23:20:17.412Z,14.47
2023-02-20T23:23:38.661Z,16.10
2023-02-20T23:26:59.923Z,13.60
2023-02-20T23:30:21.312Z,13.50
2023-02-20T23:33:42.591Z,14.98
2023-02-20T23:37:08.563Z,14.47
2023-02-20T23:40:36.364Z,14.50
2023-02-20T23:43:58.330Z,13.65
2023-02-20T23:47:19.577Z,13.40
2023-02-20T23:50:43.184Z,12.20
2023-02-20T23:54:04.416Z,14.20
2023-02-20T23:57:26.022Z,12.70
